KHBI

Asheboro Regional Airport

Asheboro, North Carolina, USA
METAR KHBI 191455Z AUTO 00000KT 10SM CLR M03/M04 A3026 RMK AO2 T10291041
Observed Flight Rules
Jan-19 @ 14:55 UTC (36 minutes ago) Visual Flight Rules
Wind Visibility Clouds
Calm 10 miles
  • Clear skies
Temperatures Readings
Current -3°C / 27°F
Dewpoint -4°C / 25°F
Humidity 93%
Altimeter 30.26" Hg
Pressure 1025 hPa
Elevation 205
METAR KHBI 191455Z AUTO 00000KT 10SM CLR M03/M04 A3026 RMK AO2 T10291041
Observed Flight Rules
Jan-19 @ 14:55 UTC
(36 minutes ago)
VFR
Wind Visibility
Calm 10 miles
Clouds
  • Clear skies
Temperature Dewpoint
-3°C / 27°F -4°C / 25°F
Humidity Altimeter Pressure
93% 30.26" Hg 1025 hPa